createdAt,value
2022-08-05T00:01:35.553Z,50.40
2022-08-05T00:04:03.657Z,50.50
2022-08-05T00:06:36.067Z,50.50
2022-08-05T00:09:04.035Z,50.60
2022-08-05T00:11:35.148Z,50.70
2022-08-05T00:14:17.202Z,50.80
2022-08-05T00:16:53.247Z,50.80
2022-08-05T00:19:23.307Z,50.90
2022-08-05T00:21:52.112Z,51.00
2022-08-05T00:24:24.675Z,51.10
2022-08-05T00:26:53.010Z,51.10
2022-08-05T00:29:22.414Z,51.30
2022-08-05T00:31:53.340Z,51.40
2022-08-05T00:34:53.308Z,51.40
2022-08-05T00:37:23.364Z,51.50
2022-08-05T00:39:58.036Z,51.60
2022-08-05T00:42:33.978Z,51.70
2022-08-05T00:45:01.582Z,51.60
2022-08-05T00:47:31.659Z,51.60
2022-08-05T00:50:15.956Z,51.60
2022-08-05T00:52:45.543Z,51.80
2022-08-05T00:55:14.064Z,51.60
2022-08-05T00:57:58.077Z,51.50
2022-08-05T01:00:27.546Z,51.50
2022-08-05T01:02:54.957Z,51.50
2022-08-05T01:05:27.392Z,51.50
2022-08-05T01:08:40.619Z,51.50
2022-08-05T01:10:52.837Z,51.40
2022-08-05T01:13:58.967Z,51.40
2022-08-05T01:16:40.176Z,51.40
2022-08-05T01:19:56.413Z,51.30
2022-08-05T01:22:41.784Z,51.30
2022-08-05T01:25:39.813Z,51.20
2022-08-05T01:28:19.008Z,51.20
2022-08-05T01:30:59.416Z,51.20
2022-08-05T01:33:35.453Z,51.30
2022-08-05T01:36:07.133Z,51.40
2022-08-05T01:38:40.836Z,51.40
2022-08-05T01:41:08.686Z,52.10
2022-08-05T01:43:37.267Z,51.70
2022-08-05T01:46:39.162Z,51.70
2022-08-05T01:48:55.216Z,51.80
2022-08-05T01:51:22.326Z,52.00
2022-08-05T01:53:57.582Z,52.10
2022-08-05T01:58:11.438Z,52.30
2022-08-05T01:59:17.430Z,52.40
2022-08-05T02:01:44.473Z,52.60
2022-08-05T02:04:12.664Z,52.70
2022-08-05T02:06:39.592Z,52.90
2022-08-05T02:09:07.004Z,53.00
2022-08-05T02:11:47.947Z,53.20
2022-08-05T02:14:22.421Z,53.40
2022-08-05T02:16:55.569Z,53.50
2022-08-05T02:19:28.640Z,53.70
2022-08-05T02:22:25.612Z,53.80
2022-08-05T02:24:57.303Z,54.00
2022-08-05T02:27:30.100Z,54.00
2022-08-05T02:30:16.758Z,54.10
2022-08-05T02:32:47.238Z,54.30
2022-08-05T02:35:18.963Z,53.90
2022-08-05T02:37:53.795Z,54.60
2022-08-05T02:40:21.627Z,54.60
2022-08-05T02:42:52.696Z,54.80
2022-08-05T02:45:23.821Z,54.90
2022-08-05T02:48:11.730Z,55.00
2022-08-05T02:50:43.535Z,55.10
2022-08-05T02:53:11.972Z,55.20
2022-08-05T02:55:54.207Z,55.30
2022-08-05T02:58:27.360Z,55.40
2022-08-05T03:00:56.236Z,55.50
2022-08-05T03:03:23.390Z,55.50
2022-08-05T03:06:54.783Z,55.50
2022-08-05T03:08:42.769Z,55.60
2022-08-05T03:11:55.114Z,55.50
2022-08-05T03:14:13.394Z,55.60
2022-08-05T03:16:40.770Z,55.60
2022-08-05T03:19:12.995Z,55.60
2022-08-05T03:21:48.628Z,55.70
2022-08-05T03:24:16.906Z,55.70
2022-08-05T03:26:49.297Z,55.70
2022-08-05T03:29:17.300Z,55.80
2022-08-05T03:31:56.945Z,55.80
2022-08-05T03:34:27.898Z,55.90
2022-08-05T03:36:55.872Z,56.00
2022-08-05T03:39:27.010Z,56.00
2022-08-05T03:41:56.366Z,56.10
2022-08-05T03:44:24.067Z,56.20
2022-08-05T03:46:50.890Z,56.20
2022-08-05T03:49:18.035Z,56.40
2022-08-05T03:52:38.609Z,56.30
2022-08-05T03:55:51.172Z,56.40
2022-08-05T03:57:42.444Z,56.50
2022-08-05T04:00:15.920Z,56.50
2022-08-05T04:02:57.975Z,56.60
2022-08-05T04:05:35.861Z,56.60
2022-08-05T04:08:05.875Z,56.70
2022-08-05T04:10:42.891Z,56.70
2022-08-05T04:13:09.883Z,56.80
2022-08-05T04:15:36.849Z,56.90
2022-08-05T04:18:07.239Z,56.90
2022-08-05T04:20:36.662Z,57.10
2022-08-05T04:23:03.675Z,57.10
2022-08-05T04:25:57.371Z,57.30
2022-08-05T04:28:18.598Z,57.30
2022-08-05T04:30:49.776Z,57.40
2022-08-05T04:33:17.701Z,57.60
2022-08-05T04:36:16.212Z,57.60
2022-08-05T04:38:58.240Z,57.90
2022-08-05T04:41:36.902Z,57.70
2022-08-05T04:44:09.046Z,57.80
2022-08-05T04:46:37.347Z,57.80
2022-08-05T04:49:05.730Z,57.90
2022-08-05T04:51:39.292Z,58.00
2022-08-05T04:54:06.249Z,57.90
2022-08-05T04:56:37.238Z,57.90
2022-08-05T04:59:22.415Z,58.00
2022-08-05T05:02:07.035Z,58.00
2022-08-05T05:04:43.911Z,58.00
2022-08-05T05:07:17.771Z,58.00
2022-08-05T05:09:45.313Z,58.00
2022-08-05T05:12:12.161Z,58.10
2022-08-05T05:14:49.533Z,58.10
2022-08-05T05:17:23.544Z,58.10
2022-08-05T05:19:56.592Z,58.00
2022-08-05T05:22:26.022Z,58.00
2022-08-05T05:24:56.852Z,58.00
2022-08-05T05:27:41.162Z,58.00
2022-08-05T05:30:31.305Z,57.90
2022-08-05T05:33:09.148Z,57.90
2022-08-05T05:35:47.449Z,57.90
2022-08-05T05:38:14.787Z,57.90
2022-08-05T05:40:51.544Z,57.90
2022-08-05T05:43:54.442Z,57.80
2022-08-05T05:46:15.904Z,57.80
2022-08-05T05:48:45.965Z,57.90
2022-08-05T05:51:23.998Z,57.90
2022-08-05T05:53:57.321Z,58.00
2022-08-05T05:56:33.021Z,58.00
2022-08-05T05:59:05.387Z,58.10
2022-08-05T06:01:40.407Z,58.20
2022-08-05T06:04:08.346Z,58.10
2022-08-05T06:06:42.979Z,58.20
2022-08-05T06:09:17.513Z,58.10
2022-08-05T06:12:01.130Z,58.10
2022-08-05T06:14:29.785Z,58.00
2022-08-05T06:16:57.944Z,58.00
2022-08-05T06:19:33.013Z,58.10
2022-08-05T06:22:03.562Z,58.10
2022-08-05T06:24:30.994Z,58.10
2022-08-05T06:26:58.033Z,58.10
2022-08-05T06:29:46.266Z,58.10
2022-08-05T06:32:25.213Z,58.10
2022-08-05T06:34:56.384Z,58.10
2022-08-05T06:37:56.114Z,58.10
2022-08-05T06:40:12.545Z,58.10
2022-08-05T06:42:41.754Z,58.00
2022-08-05T06:45:09.625Z,57.90
2022-08-05T06:48:36.175Z,57.80
2022-08-05T06:50:34.754Z,57.80
2022-08-05T06:53:11.424Z,57.80
2022-08-05T06:55:41.999Z,57.60
2022-08-05T06:58:19.708Z,57.50
2022-08-05T07:00:59.745Z,57.30
2022-08-05T07:03:32.525Z,57.20
2022-08-05T07:06:06.126Z,57.00
2022-08-05T07:08:47.874Z,57.40
2022-08-05T07:11:22.379Z,56.60
2022-08-05T07:14:20.037Z,56.50
2022-08-05T07:17:58.540Z,56.40
2022-08-05T07:22:35.473Z,55.90
2022-08-05T07:25:23.147Z,55.70
2022-08-05T07:27:57.127Z,55.60
2022-08-05T07:30:32.820Z,55.50
2022-08-05T07:33:01.768Z,55.30
2022-08-05T07:36:01.625Z,55.20
2022-08-05T07:38:32.882Z,55.20
2022-08-05T07:42:09.231Z,55.10
2022-08-05T07:43:56.610Z,55.10
2022-08-05T07:46:27.537Z,55.00
2022-08-05T07:49:01.772Z,55.00
2022-08-05T07:51:40.347Z,55.00
2022-08-05T07:54:18.995Z,54.90
2022-08-05T07:57:01.718Z,54.90
2022-08-05T07:59:40.055Z,54.80
2022-08-05T08:02:15.830Z,54.70
2022-08-05T08:04:48.220Z,54.70
2022-08-05T08:07:16.063Z,54.60
2022-08-05T08:09:45.226Z,54.60
2022-08-05T08:12:35.586Z,54.70
2022-08-05T08:15:02.205Z,54.60
2022-08-05T08:17:36.068Z,54.40
2022-08-05T08:20:42.675Z,54.40
2022-08-05T08:22:57.501Z,54.40
2022-08-05T08:25:26.990Z,54.30
2022-08-05T08:28:03.148Z,54.30
2022-08-05T08:30:39.235Z,54.20
2022-08-05T08:33:14.536Z,54.10
2022-08-05T08:35:52.432Z,53.90
2022-08-05T08:38:36.023Z,53.70
2022-08-05T08:41:08.729Z,53.60
2022-08-05T08:45:17.858Z,53.30
2022-08-05T08:46:24.699Z,53.20
2022-08-05T08:49:06.329Z,52.90
2022-08-05T08:52:04.246Z,52.80
2022-08-05T08:54:31.313Z,52.70
2022-08-05T08:56:59.721Z,52.60
2022-08-05T08:59:27.447Z,52.50
2022-08-05T09:01:57.591Z,52.60
2022-08-05T09:04:30.159Z,52.60
2022-08-05T09:06:58.341Z,52.50
2022-08-05T09:09:34.764Z,52.40
2022-08-05T09:12:19.815Z,52.30
2022-08-05T09:14:58.017Z,52.40
2022-08-05T09:17:42.733Z,52.30
2022-08-05T09:20:36.365Z,52.30
2022-08-05T09:23:09.171Z,52.10
2022-08-05T09:26:00.253Z,52.50
2022-08-05T09:28:32.500Z,51.70
2022-08-05T09:31:18.118Z,51.70
2022-08-05T09:33:56.238Z,51.40
2022-08-05T09:36:27.700Z,51.20
2022-08-05T09:39:18.056Z,51.10
2022-08-05T09:42:03.770Z,50.70
2022-08-05T09:44:37.120Z,50.00
2022-08-05T09:47:12.487Z,49.60
2022-08-05T09:49:54.870Z,49.20
2022-08-05T09:52:33.796Z,48.70
2022-08-05T09:55:58.313Z,48.10
2022-08-05T09:57:58.668Z,47.80
2022-08-05T10:00:27.597Z,47.30
2022-08-05T10:02:58.360Z,47.00
2022-08-05T10:05:27.029Z,46.40
2022-08-05T10:08:34.893Z,45.90
2022-08-05T10:10:50.325Z,45.20
2022-08-05T10:13:31.619Z,45.20
2022-08-05T10:16:00.777Z,45.20
2022-08-05T10:18:32.634Z,45.00
2022-08-05T10:21:08.467Z,44.70
2022-08-05T10:23:59.671Z,44.40
2022-08-05T10:26:32.492Z,44.10
2022-08-05T10:29:01.061Z,43.80
2022-08-05T10:33:01.561Z,43.40
2022-08-05T10:34:17.006Z,43.00
2022-08-05T10:36:44.336Z,42.60
2022-08-05T10:39:25.020Z,42.20
2022-08-05T10:42:18.492Z,41.80
2022-08-05T10:44:46.209Z,41.70
2022-08-05T10:47:26.646Z,41.30
2022-08-05T10:50:32.820Z,41.30
2022-08-05T10:53:01.151Z,41.00
2022-08-05T10:55:32.918Z,41.00
2022-08-05T10:58:18.128Z,41.40
2022-08-05T11:00:55.008Z,41.60
2022-08-05T11:03:30.231Z,41.40
2022-08-05T11:06:15.837Z,41.10
2022-08-05T11:09:03.272Z,40.60
2022-08-05T11:11:52.136Z,40.90
2022-08-05T11:14:42.807Z,40.70
2022-08-05T11:17:58.883Z,40.50
2022-08-05T11:20:41.618Z,40.10
2022-08-05T11:24:05.409Z,39.80
2022-08-05T11:26:32.118Z,39.60
2022-08-05T11:29:12.310Z,39.40
2022-08-05T11:31:58.457Z,38.70
2022-08-05T11:34:39.520Z,38.50
2022-08-05T11:38:26.611Z,38.10
2022-08-05T11:40:02.859Z,38.20
2022-08-05T11:42:37.819Z,37.90
2022-08-05T11:45:14.405Z,37.30
2022-08-05T11:47:54.679Z,37.00
2022-08-05T11:50:22.868Z,37.00
2022-08-05T11:52:53.190Z,37.00
2022-08-05T11:55:21.659Z,37.00
2022-08-05T11:58:09.615Z,36.60
2022-08-05T12:00:39.100Z,36.40
2022-08-05T12:03:31.432Z,36.50
2022-08-05T12:06:10.180Z,36.10
2022-08-05T12:08:54.790Z,35.80
2022-08-05T12:11:28.281Z,35.50
2022-08-05T12:14:08.494Z,35.70
2022-08-05T12:16:45.205Z,35.50
2022-08-05T12:20:27.240Z,35.00
2022-08-05T12:22:01.267Z,34.90
2022-08-05T12:24:28.395Z,34.60
2022-08-05T12:26:57.048Z,34.80
2022-08-05T12:29:26.672Z,34.60
2022-08-05T12:31:54.769Z,34.70
2022-08-05T12:34:29.275Z,35.00
2022-08-05T12:37:00.505Z,34.80
2022-08-05T12:39:34.558Z,35.20
2022-08-05T12:42:14.929Z,35.30
2022-08-05T12:44:43.155Z,35.30
2022-08-05T12:47:12.466Z,35.20
2022-08-05T12:50:03.354Z,34.80
2022-08-05T12:52:39.702Z,35.10
2022-08-05T12:55:25.598Z,35.20
2022-08-05T12:58:49.514Z,34.60
2022-08-05T13:02:01.799Z,34.70
2022-08-05T13:03:32.887Z,34.70
2022-08-05T13:06:01.438Z,35.00
2022-08-05T13:08:32.194Z,35.10
2022-08-05T13:11:02.322Z,35.40
2022-08-05T13:14:06.784Z,35.40
2022-08-05T13:16:19.576Z,35.30
2022-08-05T13:18:55.185Z,34.70
2022-08-05T13:21:37.939Z,34.50
2022-08-05T13:24:15.496Z,34.60
2022-08-05T13:27:02.584Z,34.70
2022-08-05T13:29:37.599Z,34.30
2022-08-05T13:32:05.681Z,34.00
2022-08-05T13:34:33.309Z,34.30
2022-08-05T13:37:01.008Z,34.20
2022-08-05T13:40:14.057Z,33.90
2022-08-05T13:42:15.372Z,33.70
2022-08-05T13:44:46.167Z,33.60
2022-08-05T13:47:34.724Z,33.20
2022-08-05T13:50:04.768Z,33.10
2022-08-05T13:52:35.493Z,33.10
2022-08-05T13:55:07.973Z,33.20
2022-08-05T13:57:50.886Z,33.60
2022-08-05T14:00:26.960Z,32.60
2022-08-05T14:03:01.386Z,32.40
2022-08-05T14:05:48.061Z,32.20
2022-08-05T14:08:21.006Z,32.10
2022-08-05T14:11:03.151Z,31.80
2022-08-05T14:13:42.214Z,31.90
2022-08-05T14:16:11.648Z,32.10
2022-08-05T14:18:44.920Z,32.10
2022-08-05T14:22:07.803Z,31.90
2022-08-05T14:23:58.759Z,31.80
2022-08-05T14:26:35.818Z,31.50
2022-08-05T14:29:06.131Z,31.10
2022-08-05T14:32:03.296Z,30.70
2022-08-05T14:34:35.008Z,30.80
2022-08-05T14:37:13.295Z,30.70
2022-08-05T14:39:49.546Z,30.50
2022-08-05T14:42:20.765Z,30.30
2022-08-05T14:44:49.180Z,30.30
2022-08-05T14:47:16.195Z,30.40
2022-08-05T14:49:56.424Z,30.30
2022-08-05T14:52:51.819Z,30.50
2022-08-05T14:55:15.654Z,30.40
2022-08-05T14:57:55.962Z,30.00
2022-08-05T15:00:27.685Z,30.00
2022-08-05T15:02:59.316Z,30.00
2022-08-05T15:05:30.127Z,29.90
2022-08-05T15:08:17.936Z,30.10
2022-08-05T15:11:01.311Z,30.30
2022-08-05T15:13:28.549Z,30.60
2022-08-05T15:16:13.391Z,30.90
2022-08-05T15:18:40.798Z,30.90
2022-08-05T15:21:08.779Z,30.80
2022-08-05T15:23:35.726Z,30.70
2022-08-05T15:26:05.047Z,30.60
2022-08-05T15:28:34.351Z,30.40
2022-08-05T15:31:03.597Z,30.20
2022-08-05T15:34:05.722Z,30.20
2022-08-05T15:36:24.223Z,30.00
2022-08-05T15:41:03.773Z,30.10
2022-08-05T15:41:57.631Z,30.40
2022-08-05T15:44:27.600Z,30.50
2022-08-05T15:46:55.659Z,30.30
2022-08-05T15:49:40.801Z,30.10
2022-08-05T15:52:16.648Z,30.20
2022-08-05T15:54:56.536Z,30.20
2022-08-05T15:57:23.684Z,30.30
2022-08-05T15:59:56.685Z,30.40
2022-08-05T16:02:25.531Z,30.70
2022-08-05T16:04:55.976Z,30.90
2022-08-05T16:07:23.032Z,30.90
2022-08-05T16:09:50.162Z,30.80
2022-08-05T16:12:17.732Z,31.00
2022-08-05T16:14:47.216Z,31.10
2022-08-05T16:17:14.188Z,31.30
2022-08-05T16:20:03.095Z,31.50
2022-08-05T16:22:34.256Z,31.70
2022-08-05T16:25:08.170Z,31.90
2022-08-05T16:28:00.512Z,31.90
2022-08-05T16:30:26.653Z,32.00
2022-08-05T16:32:56.261Z,31.90
2022-08-05T16:35:27.756Z,31.80
2022-08-05T16:38:11.959Z,31.50
2022-08-05T16:40:54.926Z,31.60
2022-08-05T16:43:23.854Z,31.90
2022-08-05T16:46:07.623Z,32.10
2022-08-05T16:48:39.228Z,32.30
2022-08-05T16:51:09.894Z,32.70
2022-08-05T16:54:04.274Z,32.90
2022-08-05T16:56:29.136Z,32.90
2022-08-05T16:58:58.991Z,32.90
2022-08-05T17:01:28.076Z,32.90
2022-08-05T17:04:15.053Z,33.00
2022-08-05T17:06:42.179Z,32.60
2022-08-05T17:09:09.412Z,32.30
2022-08-05T17:11:48.232Z,32.00
2022-08-05T17:14:34.417Z,31.80
2022-08-05T17:17:04.653Z,31.60
2022-08-05T17:19:31.604Z,31.40
2022-08-05T17:21:58.845Z,31.20
2022-08-05T17:24:36.513Z,31.30
2022-08-05T17:27:09.346Z,31.40
2022-08-05T17:29:41.084Z,31.50
2022-08-05T17:32:17.093Z,31.60
2022-08-05T17:34:47.695Z,31.90
2022-08-05T17:37:39.610Z,32.00
2022-08-05T17:40:02.429Z,32.00
2022-08-05T17:42:32.260Z,32.30
2022-08-05T17:45:17.955Z,32.50
2022-08-05T17:47:53.611Z,32.60
2022-08-05T17:50:29.434Z,32.80
2022-08-05T17:53:08.575Z,33.00
2022-08-05T17:55:37.735Z,33.30
2022-08-05T17:58:09.937Z,33.40
2022-08-05T18:00:44.370Z,33.60
2022-08-05T18:03:33.223Z,33.80
2022-08-05T18:06:06.167Z,33.90
2022-08-05T18:08:40.650Z,34.00
2022-08-05T18:11:24.312Z,34.30
2022-08-05T18:14:00.791Z,34.40
2022-08-05T18:16:31.171Z,34.60
2022-08-05T18:18:58.426Z,34.60
2022-08-05T18:21:26.477Z,34.70
2022-08-05T18:24:12.655Z,34.70
2022-08-05T18:26:41.236Z,34.70
2022-08-05T18:29:10.576Z,34.80
2022-08-05T18:31:37.497Z,34.80
2022-08-05T18:34:12.827Z,34.80
2022-08-05T18:36:43.696Z,34.80
2022-08-05T18:39:42.082Z,34.70
2022-08-05T18:42:04.756Z,34.80
2022-08-05T18:44:49.273Z,34.70
2022-08-05T18:47:22.817Z,34.80
2022-08-05T18:50:12.777Z,34.90
2022-08-05T18:52:50.986Z,34.80
2022-08-05T18:55:18.833Z,34.60
2022-08-05T18:57:52.726Z,34.50
2022-08-05T19:00:28.798Z,34.40
2022-08-05T19:02:57.651Z,34.40
2022-08-05T19:06:11.758Z,34.30
2022-08-05T19:08:33.861Z,34.30
2022-08-05T19:11:04.495Z,34.50
2022-08-05T19:13:35.740Z,34.80
2022-08-05T19:16:04.776Z,35.00
2022-08-05T19:18:51.244Z,35.30
2022-08-05T19:21:18.705Z,35.60
2022-08-05T19:24:06.676Z,35.80
2022-08-05T19:26:35.170Z,35.90
2022-08-05T19:29:11.179Z,36.10
2022-08-05T19:31:44.825Z,36.30
2022-08-05T19:34:18.777Z,36.40
2022-08-05T19:36:46.160Z,36.60
2022-08-05T19:39:17.502Z,36.60
2022-08-05T19:42:08.091Z,36.80
2022-08-05T19:44:32.192Z,36.90
2022-08-05T19:47:00.322Z,37.10
2022-08-05T19:49:30.372Z,37.90
2022-08-05T19:52:09.261Z,37.50
2022-08-05T19:55:00.455Z,37.60
2022-08-05T19:57:49.057Z,37.80
2022-08-05T20:00:20.982Z,38.00
2022-08-05T20:02:48.186Z,38.10
2022-08-05T20:05:16.544Z,38.20
2022-08-05T20:07:58.891Z,38.40
2022-08-05T20:10:26.494Z,38.50
2022-08-05T20:12:55.181Z,38.70
2022-08-05T20:15:52.277Z,38.90
2022-08-05T20:18:33.303Z,39.10
2022-08-05T20:20:57.513Z,39.50
2022-08-05T20:23:39.378Z,39.80
2022-08-05T20:26:16.020Z,40.20
2022-08-05T20:28:44.582Z,40.50
2022-08-05T20:31:12.431Z,40.80
2022-08-05T20:33:42.329Z,41.00
2022-08-05T20:36:21.059Z,41.20
2022-08-05T20:38:53.397Z,41.60
2022-08-05T20:41:27.163Z,41.70
2022-08-05T20:44:17.654Z,42.00
2022-08-05T20:46:47.581Z,42.20
2022-08-05T20:49:15.191Z,42.40
2022-08-05T20:51:53.366Z,42.60
2022-08-05T20:54:22.179Z,42.80
2022-08-05T20:56:49.549Z,42.90
2022-08-05T20:59:19.034Z,43.10
2022-08-05T21:01:46.994Z,43.20
2022-08-05T21:04:14.125Z,43.30
2022-08-05T21:06:45.249Z,43.40
2022-08-05T21:09:14.372Z,43.60
2022-08-05T21:12:07.293Z,43.70
2022-08-05T21:14:35.233Z,43.80
2022-08-05T21:17:05.344Z,43.90
2022-08-05T21:19:46.743Z,44.00
2022-08-05T21:22:23.012Z,44.20
2022-08-05T21:24:51.641Z,44.20
2022-08-05T21:27:25.327Z,44.40
2022-08-05T21:29:57.674Z,44.50
2022-08-05T21:32:27.057Z,44.60
2022-08-05T21:35:08.842Z,44.70
2022-08-05T21:37:47.162Z,44.80
2022-08-05T21:40:14.658Z,44.90
2022-08-05T21:42:45.250Z,45.00
2022-08-05T21:45:24.600Z,45.10
2022-08-05T21:47:56.552Z,45.20
2022-08-05T21:50:25.681Z,45.30
2022-08-05T21:52:53.035Z,45.30
2022-08-05T21:56:01.049Z,45.50
2022-08-05T21:58:10.495Z,45.60
2022-08-05T22:00:40.091Z,45.60
2022-08-05T22:03:09.971Z,45.80
2022-08-05T22:05:49.039Z,45.90
2022-08-05T22:08:22.500Z,46.00
2022-08-05T22:10:51.829Z,46.20
2022-08-05T22:14:06.587Z,46.30
2022-08-05T22:16:32.329Z,46.40
2022-08-05T22:18:58.642Z,46.50
2022-08-05T22:21:26.457Z,46.50
2022-08-05T22:24:12.986Z,46.70
2022-08-05T22:27:01.139Z,46.70
2022-08-05T22:29:34.128Z,46.90
2022-08-05T22:32:03.196Z,47.00
2022-08-05T22:34:31.725Z,47.10
2022-08-05T22:36:59.024Z,47.30
2022-08-05T22:39:33.297Z,47.40
2022-08-05T22:42:10.948Z,47.60
2022-08-05T22:44:41.205Z,47.70
2022-08-05T22:47:15.114Z,47.90
2022-08-05T22:50:20.848Z,48.00
2022-08-05T22:52:49.341Z,48.20
2022-08-05T22:55:19.346Z,48.20
2022-08-05T22:57:49.048Z,48.30
2022-08-05T23:00:20.581Z,48.50
2022-08-05T23:02:48.877Z,48.50
2022-08-05T23:05:16.859Z,48.60
2022-08-05T23:07:48.531Z,48.70
2022-08-05T23:10:20.311Z,48.70
2022-08-05T23:12:51.506Z,48.80
2022-08-05T23:15:51.705Z,48.40
2022-08-05T23:18:18.514Z,49.10
2022-08-05T23:20:49.865Z,49.00
2022-08-05T23:23:16.881Z,49.10
2022-08-05T23:25:51.362Z,49.30
2022-08-05T23:28:23.863Z,49.40
2022-08-05T23:30:54.785Z,49.40
2022-08-05T23:34:02.670Z,49.60
2022-08-05T23:36:10.532Z,49.70
2022-08-05T23:38:38.224Z,49.70
2022-08-05T23:41:05.436Z,49.80
2022-08-05T23:44:04.388Z,49.90
2022-08-05T23:46:21.930Z,50.00
2022-08-05T23:48:59.751Z,50.20
2022-08-05T23:51:53.395Z,50.30
2022-08-05T23:54:30.263Z,50.40
2022-08-05T23:57:06.004Z,50.50
